createdAt,value
2017-09-17T00:00:01.936Z,8.7
2017-09-17T00:00:06.180Z,8.71
2017-09-17T00:00:09.998Z,8.71
2017-09-17T00:00:13.929Z,8.73
2017-09-17T00:00:18.125Z,8.7
2017-09-17T00:00:22.060Z,8.86
2017-09-17T00:00:26.251Z,8.8
2017-09-17T00:00:30.323Z,8.7
2017-09-17T00:00:34.386Z,8.73
2017-09-17T00:00:38.443Z,8.73
2017-09-17T00:00:42.763Z,8.71
2017-09-17T00:00:46.829Z,8.76
2017-09-17T00:00:51.022Z,8.71
2017-09-17T00:00:55.206Z,8.86
2017-09-17T00:00:59.510Z,8.88
2017-09-17T00:01:03.693Z,8.71
2017-09-17T00:01:08.007Z,8.83
2017-09-17T00:01:12.069Z,8.73
2017-09-17T00:01:16.255Z,8.86
2017-09-17T00:01:20.692Z,8.83
2017-09-17T00:01:24.920Z,8.78
2017-09-17T00:01:28.981Z,8.83
2017-09-17T00:01:32.917Z,8.71
2017-09-17T00:01:36.973Z,8.75
2017-09-17T00:01:41.034Z,8.73
2017-09-17T00:01:44.969Z,8.71
2017-09-17T00:01:49.397Z,8.71
2017-09-17T00:01:53.701Z,8.86
2017-09-17T00:01:57.766Z,8.86
2017-09-17T00:02:02.074Z,8.71
2017-09-17T00:02:06.136Z,8.8
2017-09-17T00:02:10.075Z,8.71
2017-09-17T00:02:14.389Z,8.71
2017-09-17T00:02:18.448Z,8.71
2017-09-17T00:02:22.389Z,8.75
2017-09-17T00:02:26.571Z,8.73
2017-09-17T00:02:30.755Z,8.73
2017-09-17T00:02:34.564Z,8.73
2017-09-17T00:02:38.618Z,8.73
2017-09-17T00:02:42.683Z,8.76
2017-09-17T00:02:47.009Z,8.78
2017-09-17T00:02:51.199Z,8.71
2017-09-17T00:02:55.639Z,8.71
2017-09-17T00:02:59.952Z,8.71
2017-09-17T00:03:04.261Z,8.76
2017-09-17T00:03:08.478Z,8.7
2017-09-17T00:03:12.538Z,8.76
2017-09-17T00:03:16.601Z,8.75
2017-09-17T00:03:20.795Z,8.76
2017-09-17T00:03:24.872Z,8.73
2017-09-17T00:03:28.933Z,8.71
2017-09-17T00:03:32.995Z,8.71
2017-09-17T00:03:37.310Z,8.71
2017-09-17T00:03:41.650Z,8.7
2017-09-17T00:03:45.714Z,8.8
2017-09-17T00:03:49.898Z,8.71
2017-09-17T00:03:54.086Z,8.75
2017-09-17T00:03:58.404Z,8.7
2017-09-17T00:04:02.886Z,8.7
2017-09-17T00:04:06.950Z,8.75
2017-09-17T00:04:11.261Z,8.86
2017-09-17T00:04:15.601Z,8.76
2017-09-17T00:04:19.788Z,8.73
2017-09-17T00:04:23.596Z,8.7
2017-09-17T00:04:27.784Z,8.78
2017-09-17T00:04:31.851Z,8.86
2017-09-17T00:04:36.038Z,8.71
2017-09-17T00:04:39.974Z,8.71
2017-09-17T00:04:43.788Z,8.71
2017-09-17T00:04:47.856Z,8.76
2017-09-17T00:04:52.036Z,8.73
2017-09-17T00:04:56.098Z,8.82
2017-09-17T00:05:00.036Z,8.71
2017-09-17T00:05:04.346Z,8.71
2017-09-17T00:05:08.777Z,8.71
2017-09-17T00:05:12.962Z,8.73
2017-09-17T00:05:16.902Z,8.71
2017-09-17T00:05:20.965Z,8.76
2017-09-17T00:05:25.024Z,8.82
2017-09-17T00:05:29.207Z,8.75
2017-09-17T00:05:33.265Z,8.8
2017-09-17T00:05:37.203Z,8.83
2017-09-17T00:05:41.381Z,8.82
2017-09-17T00:05:45.445Z,8.79
2017-09-17T00:05:49.638Z,8.73
2017-09-17T00:05:53.820Z,8.73
2017-09-17T00:05:57.757Z,8.8
2017-09-17T00:06:01.939Z,8.85
2017-09-17T00:06:05.998Z,8.83
2017-09-17T00:06:10.072Z,8.73
2017-09-17T00:06:14.141Z,8.7
2017-09-17T00:06:18.202Z,8.88
2017-09-17T00:06:22.267Z,8.73
2017-09-17T00:06:26.328Z,8.8
2017-09-17T00:06:30.506Z,8.83
2017-09-17T00:06:34.563Z,8.82
2017-09-17T00:06:38.875Z,8.83
2017-09-17T00:06:42.814Z,8.8
2017-09-17T00:06:47.256Z,8.86
2017-09-17T00:06:51.444Z,8.83
2017-09-17T00:06:55.256Z,8.75
2017-09-17T00:06:59.320Z,8.83
2017-09-17T00:07:03.627Z,8.85
2017-09-17T00:07:07.687Z,8.82
2017-09-17T00:07:11.622Z,8.82
2017-09-17T00:07:15.688Z,8.82
2017-09-17T00:07:19.877Z,8.75
2017-09-17T00:07:23.814Z,8.8
2017-09-17T00:07:27.875Z,8.85
2017-09-17T00:07:31.809Z,8.82
2017-09-17T00:07:35.742Z,8.83
2017-09-17T00:07:39.927Z,8.76
2017-09-17T00:07:43.981Z,8.82
2017-09-17T00:07:47.915Z,8.82
2017-09-17T00:07:52.103Z,8.85
2017-09-17T00:07:56.162Z,8.82
2017-09-17T00:08:00.091Z,8.83
2017-09-17T00:08:04.147Z,8.88
2017-09-17T00:08:08.212Z,8.79
2017-09-17T00:08:12.145Z,8.82
2017-09-17T00:08:16.335Z,8.73
2017-09-17T00:08:20.269Z,8.79
2017-09-17T00:08:24.327Z,8.82
2017-09-17T00:08:28.386Z,8.85
2017-09-17T00:08:32.323Z,8.83
2017-09-17T00:08:36.381Z,8.83
2017-09-17T00:08:40.449Z,8.83
2017-09-17T00:08:44.886Z,8.78
2017-09-17T00:08:49.197Z,8.83
2017-09-17T00:08:53.258Z,8.89
2017-09-17T00:08:57.313Z,8.83
2017-09-17T00:09:01.244Z,8.86
2017-09-17T00:09:05.693Z,8.88
2017-09-17T00:09:10.001Z,8.89
2017-09-17T00:09:13.937Z,8.88
2017-09-17T00:09:17.998Z,8.83
2017-09-17T00:09:22.056Z,8.88
2017-09-17T00:09:25.992Z,8.83
2017-09-17T00:09:29.810Z,8.79
2017-09-17T00:09:33.623Z,8.85
2017-09-17T00:09:37.680Z,8.89
2017-09-17T00:09:41.876Z,8.86
2017-09-17T00:09:45.937Z,8.86
2017-09-17T00:09:49.993Z,8.94
2017-09-17T00:09:54.432Z,8.86
2017-09-17T00:09:58.621Z,8.86
2017-09-17T00:10:02.935Z,8.86
2017-09-17T00:10:07.002Z,8.91
2017-09-17T00:10:11.187Z,8.89
2017-09-17T00:10:15.248Z,8.8
2017-09-17T00:10:19.309Z,8.82
2017-09-17T00:10:22.996Z,8.86
2017-09-17T00:10:27.192Z,8.91
2017-09-17T00:10:31.126Z,8.91
2017-09-17T00:10:35.430Z,8.94
2017-09-17T00:10:39.366Z,8.82
2017-09-17T00:10:43.546Z,8.89
2017-09-17T00:10:47.854Z,8.82
2017-09-17T00:10:51.914Z,8.91
2017-09-17T00:10:56.105Z,8.86
2017-09-17T00:11:00.172Z,8.88
2017-09-17T00:11:04.487Z,8.88
2017-09-17T00:11:08.555Z,8.83
2017-09-17T00:11:12.883Z,8.85
2017-09-17T00:11:16.823Z,8.93
2017-09-17T00:11:20.882Z,8.93
2017-09-17T00:11:25.319Z,8.89
2017-09-17T00:11:29.661Z,8.86
2017-09-17T00:11:33.981Z,8.91
2017-09-17T00:11:38.290Z,8.93
2017-09-17T00:11:42.349Z,8.83
2017-09-17T00:11:46.534Z,8.88
2017-09-17T00:11:50.721Z,8.89
2017-09-17T00:11:54.910Z,8.91
2017-09-17T00:11:58.849Z,8.89
2017-09-17T00:12:03.039Z,8.85
2017-09-17T00:12:07.102Z,8.86
2017-09-17T00:12:11.411Z,8.88
2017-09-17T00:12:15.473Z,8.89
2017-09-17T00:12:19.790Z,8.91
2017-09-17T00:12:23.974Z,8.86
2017-09-17T00:12:28.163Z,8.85
2017-09-17T00:12:32.352Z,8.8
2017-09-17T00:12:36.160Z,8.89
2017-09-17T00:12:40.095Z,8.86
2017-09-17T00:12:44.277Z,8.86
2017-09-17T00:12:48.331Z,8.89
2017-09-17T00:12:52.262Z,8.94
2017-09-17T00:12:56.341Z,8.89
2017-09-17T00:13:00.276Z,8.86
2017-09-17T00:13:04.710Z,8.93
2017-09-17T00:13:09.027Z,8.88
2017-09-17T00:13:12.837Z,8.94
2017-09-17T00:13:16.894Z,8.89
2017-09-17T00:13:20.955Z,8.89
2017-09-17T00:13:25.023Z,8.89
2017-09-17T00:13:29.334Z,8.86
2017-09-17T00:13:33.768Z,8.85
2017-09-17T00:13:37.832Z,8.85
2017-09-17T00:13:41.772Z,8.88
2017-09-17T00:13:45.956Z,8.83
2017-09-17T00:13:50.142Z,8.88
2017-09-17T00:13:54.204Z,8.89
2017-09-17T00:13:58.522Z,8.89
2017-09-17T00:14:02.586Z,8.89
2017-09-17T00:14:06.777Z,8.82
2017-09-17T00:14:10.959Z,8.85
2017-09-17T00:14:15.029Z,8.85
2017-09-17T00:14:19.219Z,8.89
2017-09-17T00:14:23.278Z,8.82
2017-09-17T00:14:27.470Z,8.85
2017-09-17T00:14:31.405Z,8.93
2017-09-17T00:14:35.630Z,8.86
2017-09-17T00:14:39.697Z,8.89
2017-09-17T00:14:43.766Z,8.88
2017-09-17T00:14:47.946Z,8.8
2017-09-17T00:14:52.140Z,8.86
2017-09-17T00:14:56.072Z,8.86
2017-09-17T00:15:00.129Z,8.83
2017-09-17T00:15:04.741Z,8.91
2017-09-17T00:15:08.677Z,8.88
2017-09-17T00:15:12.609Z,8.8
2017-09-17T00:15:16.800Z,8.82
2017-09-17T00:15:20.865Z,8.83
2017-09-17T00:15:25.062Z,8.85
2017-09-17T00:15:29.121Z,8.86
2017-09-17T00:15:33.307Z,8.83
2017-09-17T00:15:37.237Z,8.88
2017-09-17T00:15:41.423Z,8.85
2017-09-17T00:15:45.478Z,8.85
2017-09-17T00:15:49.163Z,8.8
2017-09-17T00:15:53.099Z,8.88
2017-09-17T00:15:57.037Z,8.91
2017-09-17T00:16:00.972Z,8.85
2017-09-17T00:16:05.365Z,8.78
2017-09-17T00:16:09.543Z,8.82
2017-09-17T00:16:13.858Z,8.75
2017-09-17T00:16:17.919Z,8.83
2017-09-17T00:16:22.110Z,8.83
2017-09-17T00:16:26.416Z,8.79
2017-09-17T00:16:30.357Z,8.85
2017-09-17T00:16:34.695Z,8.82
2017-09-17T00:16:39.002Z,8.89
2017-09-17T00:16:43.312Z,8.8
2017-09-17T00:16:47.245Z,8.85
2017-09-17T00:16:51.051Z,8.82
2017-09-17T00:16:55.232Z,8.8
2017-09-17T00:16:59.165Z,8.83
2017-09-17T00:17:03.350Z,8.7
2017-09-17T00:17:07.291Z,8.76
2017-09-17T00:17:11.743Z,8.85
2017-09-17T00:17:16.047Z,8.7
2017-09-17T00:17:19.984Z,8.75
2017-09-17T00:17:24.082Z,8.82
2017-09-17T00:17:28.400Z,8.71
2017-09-17T00:17:32.704Z,8.83
2017-09-17T00:17:36.764Z,8.71
2017-09-17T00:17:40.954Z,8.73
2017-09-17T00:17:45.023Z,8.8
2017-09-17T00:17:49.085Z,8.76
2017-09-17T00:17:53.518Z,8.71
2017-09-17T00:17:57.712Z,8.7
2017-09-17T00:18:01.949Z,8.71
2017-09-17T00:18:06.266Z,8.7
2017-09-17T00:18:09.951Z,8.68
2017-09-17T00:18:14.137Z,8.7
2017-09-17T00:18:18.453Z,8.75
2017-09-17T00:18:22.521Z,8.79
2017-09-17T00:18:26.457Z,8.75
2017-09-17T00:18:30.522Z,8.71
2017-09-17T00:18:34.833Z,8.8
2017-09-17T00:18:38.660Z,8.8
2017-09-17T00:18:42.601Z,8.68
2017-09-17T00:18:46.793Z,8.71
2017-09-17T00:18:50.857Z,8.73
2017-09-17T00:18:54.910Z,8.73
2017-09-17T00:18:59.089Z,8.79
2017-09-17T00:19:03.399Z,8.73
2017-09-17T00:19:07.838Z,8.71
2017-09-17T00:19:12.027Z,8.76
2017-09-17T00:19:15.960Z,8.8
2017-09-17T00:19:20.147Z,8.7
2017-09-17T00:19:24.351Z,8.7
2017-09-17T00:19:28.678Z,8.75
2017-09-17T00:19:32.732Z,8.76
2017-09-17T00:19:36.542Z,8.76
2017-09-17T00:19:40.734Z,8.78
2017-09-17T00:19:44.917Z,8.73
2017-09-17T00:19:48.730Z,8.75
2017-09-17T00:19:52.906Z,8.73
2017-09-17T00:19:57.226Z,8.79
2017-09-17T00:20:01.554Z,8.73
2017-09-17T00:20:05.394Z,8.82
2017-09-17T00:20:09.455Z,8.75
2017-09-17T00:20:13.648Z,8.75
2017-09-17T00:20:17.704Z,8.78
2017-09-17T00:20:21.642Z,8.71
2017-09-17T00:20:25.954Z,8.76
2017-09-17T00:20:30.022Z,8.79
2017-09-17T00:20:33.958Z,8.75
2017-09-17T00:20:38.013Z,8.7
2017-09-17T00:20:42.194Z,8.67
2017-09-17T00:20:46.517Z,8.68
2017-09-17T00:20:50.959Z,8.75
2017-09-17T00:20:55.271Z,8.75
2017-09-17T00:20:59.327Z,8.78
2017-09-17T00:21:03.538Z,8.78
2017-09-17T00:21:07.724Z,8.76
2017-09-17T00:21:11.909Z,8.78
2017-09-17T00:21:16.219Z,8.68
2017-09-17T00:21:20.152Z,8.79
2017-09-17T00:21:24.342Z,8.76
2017-09-17T00:21:28.527Z,8.76
2017-09-17T00:21:32.334Z,8.78
2017-09-17T00:21:36.516Z,8.76
2017-09-17T00:21:40.572Z,8.7
2017-09-17T00:21:44.883Z,8.7
2017-09-17T00:21:48.945Z,8.67
2017-09-17T00:21:53.021Z,8.73
2017-09-17T00:21:57.091Z,8.71
2017-09-17T00:22:01.285Z,8.73
2017-09-17T00:22:05.615Z,8.71
2017-09-17T00:22:09.799Z,8.82
2017-09-17T00:22:13.856Z,8.78
2017-09-17T00:22:17.917Z,8.7
2017-09-17T00:22:21.732Z,8.8
2017-09-17T00:22:26.045Z,8.78
2017-09-17T00:22:30.241Z,8.78
2017-09-17T00:22:34.175Z,8.79
2017-09-17T00:22:38.229Z,8.71
2017-09-17T00:22:42.164Z,8.71
2017-09-17T00:22:46.094Z,8.8
2017-09-17T00:22:50.033Z,8.79
2017-09-17T00:22:53.966Z,8.71
2017-09-17T00:22:58.161Z,8.75
2017-09-17T00:23:02.433Z,8.79
2017-09-17T00:23:06.614Z,8.8
2017-09-17T00:23:10.421Z,8.75
2017-09-17T00:23:14.476Z,8.73
2017-09-17T00:23:18.537Z,8.73
2017-09-17T00:23:22.340Z,8.76
2017-09-17T00:23:26.520Z,8.71
2017-09-17T00:23:30.454Z,8.85
2017-09-17T00:23:34.642Z,8.86
2017-09-17T00:23:38.582Z,8.78
2017-09-17T00:23:42.770Z,8.76
2017-09-17T00:23:47.080Z,8.86
2017-09-17T00:23:51.144Z,8.85
2017-09-17T00:23:55.326Z,8.83
2017-09-17T00:23:59.511Z,8.82
2017-09-17T00:24:03.699Z,8.76
2017-09-17T00:24:07.764Z,8.79
2017-09-17T00:24:11.838Z,8.79
2017-09-17T00:24:15.894Z,8.8
2017-09-17T00:24:20.195Z,8.76
2017-09-17T00:24:24.383Z,8.89
2017-09-17T00:24:28.568Z,8.85
2017-09-17T00:24:32.628Z,8.85
2017-09-17T00:24:36.695Z,8.85
2017-09-17T00:24:40.756Z,8.75
2017-09-17T00:24:45.186Z,8.82
2017-09-17T00:24:49.245Z,8.79
2017-09-17T00:24:53.306Z,8.82
2017-09-17T00:24:57.618Z,8.85
2017-09-17T00:25:01.803Z,8.82
2017-09-17T00:25:05.964Z,8.86
2017-09-17T00:25:10.020Z,8.85
2017-09-17T00:25:14.338Z,8.8
2017-09-17T00:25:18.402Z,8.79
2017-09-17T00:25:22.345Z,8.79
2017-09-17T00:25:26.528Z,8.86
2017-09-17T00:25:30.334Z,8.88
2017-09-17T00:25:34.652Z,8.88
2017-09-17T00:25:38.708Z,8.83
2017-09-17T00:25:42.764Z,8.88
2017-09-17T00:25:46.825Z,8.86
2017-09-17T00:25:50.880Z,8.82
2017-09-17T00:25:54.944Z,8.86
2017-09-17T00:25:59.004Z,8.82
2017-09-17T00:26:03.227Z,8.85
2017-09-17T00:26:07.138Z,8.85
2017-09-17T00:26:11.196Z,8.85
2017-09-17T00:26:15.001Z,8.89
2017-09-17T00:26:19.188Z,8.88
2017-09-17T00:26:23.373Z,8.86
2017-09-17T00:26:27.439Z,8.91
2017-09-17T00:26:31.745Z,8.85
2017-09-17T00:26:35.808Z,8.88
2017-09-17T00:26:39.996Z,8.85
2017-09-17T00:26:44.307Z,8.94
2017-09-17T00:26:48.622Z,8.89
2017-09-17T00:26:52.689Z,8.83
2017-09-17T00:26:56.619Z,8.93
2017-09-17T00:27:00.676Z,8.89
2017-09-17T00:27:04.876Z,8.91
2017-09-17T00:27:08.690Z,8.89
2017-09-17T00:27:12.878Z,8.89
2017-09-17T00:27:16.810Z,8.88
2017-09-17T00:27:20.993Z,8.91
2017-09-17T00:27:25.054Z,8.96
2017-09-17T00:27:29.244Z,8.93
2017-09-17T00:27:33.433Z,8.85
2017-09-17T00:27:37.620Z,8.88
2017-09-17T00:27:41.553Z,8.93
2017-09-17T00:27:45.743Z,8.89
2017-09-17T00:27:49.932Z,8.91
2017-09-17T00:27:53.985Z,8.96
2017-09-17T00:27:58.044Z,8.93
2017-09-17T00:28:02.330Z,8.86
2017-09-17T00:28:06.511Z,8.86
2017-09-17T00:28:10.570Z,8.94
2017-09-17T00:28:14.882Z,8.88
2017-09-17T00:28:19.197Z,8.89
2017-09-17T00:28:23.256Z,8.93
2017-09-17T00:28:27.438Z,8.85
2017-09-17T00:28:31.625Z,8.93
2017-09-17T00:28:35.827Z,8.88
2017-09-17T00:28:39.886Z,8.86
2017-09-17T00:28:44.073Z,8.88
2017-09-17T00:28:48.136Z,8.96
2017-09-17T00:28:52.205Z,8.89
2017-09-17T00:28:56.260Z,8.94
2017-09-17T00:29:00.442Z,8.96
2017-09-17T00:29:04.505Z,8.91
2017-09-17T00:29:08.693Z,8.89
2017-09-17T00:29:12.632Z,8.88
2017-09-17T00:29:16.694Z,8.88
2017-09-17T00:29:20.755Z,8.93
2017-09-17T00:29:24.686Z,8.85
2017-09-17T00:29:28.620Z,8.91
2017-09-17T00:29:32.682Z,8.96
2017-09-17T00:29:36.622Z,8.96
2017-09-17T00:29:40.810Z,8.93
2017-09-17T00:29:44.741Z,8.97
2017-09-17T00:29:48.800Z,8.97
2017-09-17T00:29:52.738Z,8.88
2017-09-17T00:29:56.795Z,8.94
2017-09-17T00:30:00.735Z,8.88
2017-09-17T00:30:04.790Z,8.94
2017-09-17T00:30:08.467Z,8.85
2017-09-17T00:30:12.525Z,8.94
2017-09-17T00:30:16.718Z,8.93
2017-09-17T00:30:21.029Z,8.94
2017-09-17T00:30:25.344Z,8.85
2017-09-17T00:30:29.407Z,8.89
2017-09-17T00:30:33.753Z,8.89
2017-09-17T00:30:37.937Z,8.86
2017-09-17T00:30:41.746Z,8.96
2017-09-17T00:30:46.057Z,8.91
2017-09-17T00:30:50.002Z,8.91
2017-09-17T00:30:54.192Z,8.88
2017-09-17T00:30:58.249Z,8.88
2017-09-17T00:31:02.585Z,8.86
2017-09-17T00:31:06.396Z,8.94
2017-09-17T00:31:10.729Z,8.89
2017-09-17T00:31:14.665Z,8.97
2017-09-17T00:31:18.978Z,8.86
2017-09-17T00:31:23.287Z,8.97
2017-09-17T00:31:27.347Z,8.97
2017-09-17T00:31:31.532Z,8.91
2017-09-17T00:31:35.590Z,8.91
2017-09-17T00:31:39.657Z,8.94
2017-09-17T00:31:43.468Z,8.94
2017-09-17T00:31:47.402Z,8.89
2017-09-17T00:31:51.458Z,8.93
2017-09-17T00:31:55.394Z,8.94
2017-09-17T00:31:59.457Z,8.91
2017-09-17T00:32:03.974Z,8.86
2017-09-17T00:32:07.915Z,8.96
2017-09-17T00:32:12.230Z,8.86
2017-09-17T00:32:16.421Z,8.94
2017-09-17T00:32:20.734Z,8.93
2017-09-17T00:32:24.923Z,8.96
2017-09-17T00:32:29.369Z,8.96
2017-09-17T00:32:33.303Z,8.88
2017-09-17T00:32:37.366Z,8.96
2017-09-17T00:32:41.172Z,8.91
2017-09-17T00:32:45.354Z,8.86
2017-09-17T00:32:49.534Z,8.96
2017-09-17T00:32:53.715Z,8.86
2017-09-17T00:32:57.777Z,8.94
2017-09-17T00:33:02.145Z,8.91
2017-09-17T00:33:06.083Z,8.97
2017-09-17T00:33:10.146Z,8.97
2017-09-17T00:33:14.336Z,8.97
2017-09-17T00:33:18.394Z,8.97
2017-09-17T00:33:22.327Z,8.91
2017-09-17T00:33:26.261Z,8.86
2017-09-17T00:33:30.319Z,8.89
2017-09-17T00:33:34.505Z,9
2017-09-17T00:33:38.693Z,9
2017-09-17T00:33:42.631Z,8.91
2017-09-17T00:33:46.689Z,8.93
2017-09-17T00:33:50.751Z,8.91
2017-09-17T00:33:54.689Z,8.88
2017-09-17T00:33:58.750Z,8.96
2017-09-17T00:34:02.819Z,8.93
2017-09-17T00:34:07.140Z,8.93
2017-09-17T00:34:11.327Z,8.97
2017-09-17T00:34:15.266Z,9.03
2017-09-17T00:34:19.446Z,8.97
2017-09-17T00:34:23.511Z,8.91
2017-09-17T00:34:27.820Z,8.96
2017-09-17T00:34:32.138Z,8.94
2017-09-17T00:34:36.448Z,8.94
2017-09-17T00:34:40.629Z,8.89
2017-09-17T00:34:44.447Z,8.94
2017-09-17T00:34:48.508Z,8.94
2017-09-17T00:34:52.567Z,8.98
2017-09-17T00:34:56.503Z,8.94
2017-09-17T00:35:00.564Z,8.93
2017-09-17T00:35:05.007Z,8.89
2017-09-17T00:35:09.062Z,8.93
2017-09-17T00:35:13.254Z,8.93
2017-09-17T00:35:17.441Z,8.89
2017-09-17T00:35:21.502Z,8.93
2017-09-17T00:35:25.439Z,8.97
2017-09-17T00:35:29.628Z,9
2017-09-17T00:35:33.694Z,8.88
2017-09-17T00:35:37.748Z,8.94
2017-09-17T00:35:41.933Z,8.94
2017-09-17T00:35:45.991Z,8.88
2017-09-17T00:35:50.050Z,8.94
2017-09-17T00:35:53.987Z,8.93
2017-09-17T00:35:58.043Z,8.94
2017-09-17T00:36:02.072Z,8.89
2017-09-17T00:36:06.389Z,8.97
2017-09-17T00:36:10.448Z,8.97
2017-09-17T00:36:14.503Z,8.93
2017-09-17T00:36:18.690Z,8.93
2017-09-17T00:36:22.873Z,8.96
2017-09-17T00:36:26.927Z,8.96
2017-09-17T00:36:30.860Z,8.88
2017-09-17T00:36:35.172Z,8.91
2017-09-17T00:36:39.236Z,8.94
2017-09-17T00:36:43.293Z,8.91
2017-09-17T00:36:47.103Z,8.96
2017-09-17T00:36:50.917Z,8.91
2017-09-17T00:36:54.987Z,8.93
2017-09-17T00:36:59.175Z,8.93
2017-09-17T00:37:03.336Z,8.97
2017-09-17T00:37:07.647Z,8.88
2017-09-17T00:37:11.592Z,8.96
2017-09-17T00:37:15.807Z,8.98
2017-09-17T00:37:19.869Z,8.94
2017-09-17T00:37:24.168Z,8.97
2017-09-17T00:37:28.223Z,8.93
2017-09-17T00:37:32.283Z,8.94
2017-09-17T00:37:36.474Z,8.98
2017-09-17T00:37:40.406Z,8.97
2017-09-17T00:37:44.585Z,8.96
2017-09-17T00:37:48.528Z,8.94
2017-09-17T00:37:52.587Z,8.91
2017-09-17T00:37:56.767Z,8.98
2017-09-17T00:38:00.702Z,8.96
2017-09-17T00:38:04.914Z,9.04
2017-09-17T00:38:08.972Z,9.03
2017-09-17T00:38:13.030Z,9.06
2017-09-17T00:38:17.089Z,9
2017-09-17T00:38:21.285Z,8.96
2017-09-17T00:38:25.344Z,8.94
2017-09-17T00:38:29.408Z,8.96
2017-09-17T00:38:33.583Z,8.94
2017-09-17T00:38:37.531Z,8.96
2017-09-17T00:38:41.339Z,9.03
2017-09-17T00:38:45.274Z,8.93
2017-09-17T00:38:49.458Z,8.96
2017-09-17T00:38:53.393Z,8.91
2017-09-17T00:38:57.332Z,9
2017-09-17T00:39:01.792Z,8.96
2017-09-17T00:39:06.221Z,8.98
2017-09-17T00:39:10.678Z,9.04
2017-09-17T00:39:14.611Z,9.01
2017-09-17T00:39:18.545Z,8.98
2017-09-17T00:39:22.363Z,8.96
2017-09-17T00:39:26.422Z,9
2017-09-17T00:39:30.478Z,8.96
2017-09-17T00:39:34.913Z,8.94
2017-09-17T00:39:38.724Z,9.04
2017-09-17T00:39:42.906Z,9.04
2017-09-17T00:39:47.098Z,8.96
2017-09-17T00:39:51.031Z,9.06
2017-09-17T00:39:55.218Z,8.91
2017-09-17T00:39:59.424Z,8.98
2017-09-17T00:40:03.663Z,9.04
2017-09-17T00:40:07.725Z,9.04
2017-09-17T00:40:12.041Z,9.01
2017-09-17T00:40:16.227Z,9
2017-09-17T00:40:20.158Z,9
2017-09-17T00:40:24.466Z,8.97
2017-09-17T00:40:28.818Z,9
2017-09-17T00:40:32.964Z,8.94
2017-09-17T00:40:36.779Z,8.94
2017-09-17T00:40:40.718Z,9
2017-09-17T00:40:44.785Z,8.97
2017-09-17T00:40:49.101Z,8.96
2017-09-17T00:40:53.164Z,8.97
2017-09-17T00:40:57.344Z,9.03
2017-09-17T00:41:01.733Z,8.97
2017-09-17T00:41:05.926Z,9.01
2017-09-17T00:41:10.240Z,9
2017-09-17T00:41:14.299Z,8.98
2017-09-17T00:41:18.231Z,9.08
2017-09-17T00:41:22.287Z,9.03
2017-09-17T00:41:26.346Z,8.96
2017-09-17T00:41:30.534Z,9.01
2017-09-17T00:41:34.469Z,8.97
2017-09-17T00:41:38.529Z,8.94
2017-09-17T00:41:42.589Z,9.03
2017-09-17T00:41:47.032Z,9.04
2017-09-17T00:41:51.090Z,9
2017-09-17T00:41:55.020Z,8.98
2017-09-17T00:41:59.325Z,9
2017-09-17T00:42:03.434Z,8.97
2017-09-17T00:42:07.622Z,9.03
2017-09-17T00:42:11.432Z,9.03
2017-09-17T00:42:15.620Z,8.96
2017-09-17T00:42:19.826Z,9
2017-09-17T00:42:23.897Z,9.01
2017-09-17T00:42:27.956Z,9.03
2017-09-17T00:42:32.272Z,9.06
2017-09-17T00:42:36.453Z,9.01
2017-09-17T00:42:40.505Z,8.97
2017-09-17T00:42:44.567Z,9.06
2017-09-17T00:42:48.627Z,9.03
2017-09-17T00:42:52.582Z,9.04
2017-09-17T00:42:56.517Z,9
2017-09-17T00:43:00.700Z,9.06
2017-09-17T00:43:04.893Z,9.04
2017-09-17T00:43:08.957Z,9
2017-09-17T00:43:13.019Z,9.01
2017-09-17T00:43:16.954Z,8.97
2017-09-17T00:43:21.006Z,9.06
2017-09-17T00:43:25.073Z,8.97
2017-09-17T00:43:29.248Z,9.03
2017-09-17T00:43:33.306Z,9
2017-09-17T00:43:37.363Z,8.98
2017-09-17T00:43:41.573Z,8.98
2017-09-17T00:43:45.631Z,9.03
2017-09-17T00:43:49.567Z,8.97
2017-09-17T00:43:53.504Z,9.03
2017-09-17T00:43:57.810Z,9.03
2017-09-17T00:44:01.991Z,9.1
2017-09-17T00:44:06.463Z,9.04
2017-09-17T00:44:10.394Z,9.08
2017-09-17T00:44:14.328Z,8.98
2017-09-17T00:44:18.630Z,9.03
2017-09-17T00:44:22.810Z,9.08
2017-09-17T00:44:26.750Z,9.06
2017-09-17T00:44:30.681Z,9.08
2017-09-17T00:44:34.742Z,9
2017-09-17T00:44:38.679Z,8.97
2017-09-17T00:44:42.994Z,9.08
2017-09-17T00:44:47.304Z,9.15
2017-09-17T00:44:51.491Z,9
2017-09-17T00:44:55.553Z,9.1
2017-09-17T00:44:59.745Z,9.04
2017-09-17T00:45:03.904Z,8.96
2017-09-17T00:45:08.086Z,8.97
2017-09-17T00:45:12.023Z,9.04
2017-09-17T00:45:15.957Z,9
2017-09-17T00:45:20.138Z,9.03
2017-09-17T00:45:23.950Z,9
2017-09-17T00:45:27.758Z,9
2017-09-17T00:45:31.832Z,8.97
2017-09-17T00:45:36.015Z,8.98
2017-09-17T00:45:40.073Z,9.1
2017-09-17T00:45:44.017Z,9.12
2017-09-17T00:45:47.954Z,8.97
2017-09-17T00:45:51.761Z,8.96
2017-09-17T00:45:55.575Z,8.98
2017-09-17T00:45:59.771Z,9.06
2017-09-17T00:46:03.963Z,9.13
2017-09-17T00:46:08.024Z,9.06
2017-09-17T00:46:12.075Z,9.01
2017-09-17T00:46:16.263Z,9.13
2017-09-17T00:46:20.210Z,9.06
2017-09-17T00:46:24.398Z,9.03
2017-09-17T00:46:28.332Z,9.1
2017-09-17T00:46:32.523Z,9.06
2017-09-17T00:46:36.582Z,9
2017-09-17T00:46:40.520Z,9.16
2017-09-17T00:46:44.954Z,9
2017-09-17T00:46:49.007Z,9.01
2017-09-17T00:46:53.070Z,9.03
2017-09-17T00:46:57.124Z,9
2017-09-17T00:47:01.185Z,9.1
2017-09-17T00:47:05.388Z,9.15
2017-09-17T00:47:09.572Z,9.12
2017-09-17T00:47:13.501Z,9.13
2017-09-17T00:47:17.685Z,9.13
2017-09-17T00:47:21.999Z,9.12
2017-09-17T00:47:26.183Z,9.1
2017-09-17T00:47:30.367Z,9.12
2017-09-17T00:47:34.301Z,9.08
2017-09-17T00:47:38.484Z,9.12
2017-09-17T00:47:42.548Z,9
2017-09-17T00:47:46.736Z,9.1
2017-09-17T00:47:50.800Z,9.13
2017-09-17T00:47:54.865Z,9.08
2017-09-17T00:47:59.045Z,9.1
2017-09-17T00:48:03.476Z,9.13
2017-09-17T00:48:07.657Z,9.15
2017-09-17T00:48:11.598Z,9.16
2017-09-17T00:48:15.529Z,9.16
2017-09-17T00:48:19.599Z,9.13
2017-09-17T00:48:23.534Z,9.19
2017-09-17T00:48:27.349Z,9.12
2017-09-17T00:48:31.284Z,9.13
2017-09-17T00:48:35.589Z,9.16
2017-09-17T00:48:39.776Z,9.06
2017-09-17T00:48:43.967Z,9.2
2017-09-17T00:48:48.280Z,9.22
2017-09-17T00:48:52.462Z,9.16
2017-09-17T00:48:56.650Z,9.17
2017-09-17T00:49:00.616Z,9.19
2017-09-17T00:49:05.153Z,9.13
2017-09-17T00:49:09.335Z,9.19
2017-09-17T00:49:13.395Z,9.17
2017-09-17T00:49:17.455Z,9.16
2017-09-17T00:49:21.516Z,9.15
2017-09-17T00:49:25.574Z,9.16
2017-09-17T00:49:29.633Z,9.13
2017-09-17T00:49:33.690Z,9.16
2017-09-17T00:49:37.887Z,9.19
2017-09-17T00:49:42.197Z,9.17
2017-09-17T00:49:46.259Z,9.13
2017-09-17T00:49:50.323Z,9.16
2017-09-17T00:49:54.378Z,9.16
2017-09-17T00:49:58.812Z,9.15
2017-09-17T00:50:02.876Z,9.13
2017-09-17T00:50:06.812Z,9.17
2017-09-17T00:50:10.886Z,9.16
2017-09-17T00:50:15.066Z,9.22
2017-09-17T00:50:19.117Z,9.16
2017-09-17T00:50:23.172Z,9.16
2017-09-17T00:50:27.229Z,9.16
2017-09-17T00:50:31.036Z,9.16
2017-09-17T00:50:34.969Z,9.13
2017-09-17T00:50:39.149Z,9.13
2017-09-17T00:50:43.462Z,9.19
2017-09-17T00:50:47.645Z,9.12
2017-09-17T00:50:51.716Z,9.12
2017-09-17T00:50:55.657Z,9.2
2017-09-17T00:50:59.720Z,9.23
2017-09-17T00:51:04.060Z,9.2
2017-09-17T00:51:08.247Z,9.22
2017-09-17T00:51:12.309Z,9.12
2017-09-17T00:51:16.246Z,9.12
2017-09-17T00:51:20.303Z,9.23
2017-09-17T00:51:24.495Z,9.24
2017-09-17T00:51:28.931Z,9.15
2017-09-17T00:51:33.118Z,9.22
2017-09-17T00:51:37.176Z,9.22
2017-09-17T00:51:41.368Z,9.3
2017-09-17T00:51:45.175Z,9.23
2017-09-17T00:51:49.368Z,9.2
2017-09-17T00:51:53.428Z,9.19
2017-09-17T00:51:57.613Z,9.2
2017-09-17T00:52:01.677Z,9.15
2017-09-17T00:52:05.936Z,9.2
2017-09-17T00:52:10.002Z,9.23
2017-09-17T00:52:14.327Z,9.19
2017-09-17T00:52:18.255Z,9.2
2017-09-17T00:52:22.309Z,9.22
2017-09-17T00:52:26.497Z,9.2
2017-09-17T00:52:30.569Z,9.17
2017-09-17T00:52:34.882Z,9.22
2017-09-17T00:52:39.194Z,9.17
2017-09-17T00:52:43.506Z,9.16
2017-09-17T00:52:47.448Z,9.26
2017-09-17T00:52:51.627Z,9.23
2017-09-17T00:52:55.811Z,9.17
2017-09-17T00:52:59.997Z,9.22
2017-09-17T00:53:04.280Z,9.17
2017-09-17T00:53:08.221Z,9.26
2017-09-17T00:53:12.412Z,9.24
2017-09-17T00:53:16.596Z,9.24
2017-09-17T00:53:20.793Z,9.22
2017-09-17T00:53:24.850Z,9.19
2017-09-17T00:53:28.909Z,9.23
2017-09-17T00:53:32.973Z,9.15
2017-09-17T00:53:37.163Z,9.26
2017-09-17T00:53:41.225Z,9.16
2017-09-17T00:53:45.543Z,9.19
2017-09-17T00:53:49.739Z,9.23
2017-09-17T00:53:53.924Z,9.23
2017-09-17T00:53:57.985Z,9.23
2017-09-17T00:54:02.098Z,9.23
2017-09-17T00:54:06.285Z,9.26
2017-09-17T00:54:10.219Z,9.22
2017-09-17T00:54:14.279Z,9.23
2017-09-17T00:54:18.477Z,9.27
2017-09-17T00:54:22.538Z,9.26
2017-09-17T00:54:26.599Z,9.24
2017-09-17T00:54:30.795Z,9.22
2017-09-17T00:54:34.727Z,9.22
2017-09-17T00:54:38.668Z,9.23
2017-09-17T00:54:42.981Z,9.23
2017-09-17T00:54:47.173Z,9.23
2017-09-17T00:54:51.243Z,9.12
2017-09-17T00:54:55.182Z,9.23
2017-09-17T00:54:59.369Z,9.17
2017-09-17T00:55:03.180Z,9.2